createdAt,value
2022-12-23T00:00:23.044Z,934.49
2022-12-23T00:01:23.079Z,934.51
2022-12-23T00:02:23.191Z,934.54
2022-12-23T00:03:23.267Z,934.49
2022-12-23T00:04:23.234Z,934.53
2022-12-23T00:05:23.130Z,934.50
2022-12-23T00:06:23.129Z,934.54
2022-12-23T00:07:23.145Z,934.50
2022-12-23T00:08:23.159Z,934.47
2022-12-23T00:09:23.174Z,934.51
2022-12-23T00:10:23.195Z,934.54
2022-12-23T00:11:23.208Z,934.48
2022-12-23T00:12:23.224Z,934.49
2022-12-23T00:13:23.237Z,934.51
2022-12-23T00:14:23.243Z,934.53
2022-12-23T00:15:23.272Z,934.55
2022-12-23T00:16:23.410Z,934.53
2022-12-23T00:17:23.571Z,934.51
2022-12-23T00:18:23.310Z,934.48
2022-12-23T00:19:23.317Z,934.44
2022-12-23T00:20:23.351Z,934.42
2022-12-23T00:21:23.351Z,934.46
2022-12-23T00:22:23.358Z,934.51
2022-12-23T00:23:23.381Z,934.52
2022-12-23T00:24:23.387Z,934.53
2022-12-23T00:25:23.404Z,934.56
2022-12-23T00:26:23.421Z,934.54
2022-12-23T00:27:23.437Z,934.56
2022-12-23T00:28:23.455Z,934.55
2022-12-23T00:29:23.467Z,934.57
2022-12-23T00:30:23.480Z,934.55
2022-12-23T00:31:23.565Z,934.60
2022-12-23T00:32:23.502Z,934.58
2022-12-23T00:33:23.533Z,934.61
2022-12-23T00:34:23.545Z,934.62
2022-12-23T00:35:23.545Z,934.60
2022-12-23T00:36:23.732Z,934.64
2022-12-23T00:37:23.583Z,934.65
2022-12-23T00:38:23.588Z,934.65
2022-12-23T00:39:23.603Z,934.67
2022-12-23T00:40:23.623Z,934.64
2022-12-23T00:41:23.630Z,934.69
2022-12-23T00:42:23.655Z,934.68
2022-12-23T00:43:23.662Z,934.72
2022-12-23T00:44:23.696Z,934.78
2022-12-23T00:45:23.699Z,934.67
2022-12-23T00:46:23.779Z,934.70
2022-12-23T00:47:23.724Z,934.73
2022-12-23T00:48:23.738Z,934.76
2022-12-23T00:49:23.745Z,934.77
2022-12-23T00:50:23.769Z,934.78
2022-12-23T00:51:23.779Z,934.75
2022-12-23T00:52:23.807Z,934.79
2022-12-23T00:53:23.801Z,934.78
2022-12-23T00:54:23.815Z,934.80
2022-12-23T00:55:23.838Z,934.84
2022-12-23T00:56:23.850Z,934.80
2022-12-23T00:57:23.858Z,934.83
2022-12-23T00:58:23.875Z,934.82
2022-12-23T00:59:23.896Z,934.78
2022-12-23T01:00:23.902Z,934.79
2022-12-23T01:01:24.068Z,934.83
2022-12-23T01:02:24.052Z,934.83
2022-12-23T01:03:23.999Z,934.85
2022-12-23T01:04:23.966Z,934.87
2022-12-23T01:05:24.003Z,934.83
2022-12-23T01:06:23.997Z,934.86
2022-12-23T01:07:23.998Z,934.84
2022-12-23T01:08:24.046Z,934.87
2022-12-23T01:09:24.037Z,934.82
2022-12-23T01:10:24.051Z,934.85
2022-12-23T01:11:24.059Z,934.82
2022-12-23T01:12:24.098Z,934.81
2022-12-23T01:13:24.088Z,934.79
2022-12-23T01:14:24.102Z,934.77
2022-12-23T01:15:24.116Z,934.84
2022-12-23T01:16:24.215Z,934.83
2022-12-23T01:17:24.267Z,934.88
2022-12-23T01:18:24.162Z,934.85
2022-12-23T01:19:24.181Z,934.87
2022-12-23T01:20:24.187Z,934.87
2022-12-23T01:21:24.211Z,934.86
2022-12-23T01:22:24.216Z,934.87
2022-12-23T01:23:24.243Z,934.86
2022-12-23T01:24:24.285Z,934.88
2022-12-23T01:25:24.263Z,934.89
2022-12-23T01:26:24.286Z,934.92
2022-12-23T01:27:24.293Z,934.91
2022-12-23T01:28:24.308Z,934.98
2022-12-23T01:29:24.312Z,934.96
2022-12-23T01:30:24.336Z,934.96
2022-12-23T01:31:24.399Z,934.94
2022-12-23T01:32:24.373Z,934.95
2022-12-23T01:33:24.387Z,934.97
2022-12-23T01:34:24.386Z,934.99
2022-12-23T01:35:24.419Z,934.94
2022-12-23T01:36:24.427Z,934.95
2022-12-23T01:37:24.431Z,934.93
2022-12-23T01:38:24.451Z,934.89
2022-12-23T01:39:24.459Z,934.88
2022-12-23T01:40:24.498Z,934.88
2022-12-23T01:41:24.498Z,934.86
2022-12-23T01:42:24.506Z,934.88
2022-12-23T01:43:24.514Z,934.89
2022-12-23T01:44:24.531Z,934.89
2022-12-23T01:45:24.548Z,934.92
2022-12-23T01:46:24.647Z,934.88
2022-12-23T01:47:24.588Z,934.88
2022-12-23T01:48:24.585Z,934.87
2022-12-23T01:49:24.606Z,934.81
2022-12-23T01:50:24.629Z,934.80
2022-12-23T01:51:24.633Z,934.81
2022-12-23T01:52:24.654Z,934.78
2022-12-23T01:53:24.664Z,934.81
2022-12-23T01:54:24.673Z,934.83
2022-12-23T01:55:24.691Z,934.77
2022-12-23T01:56:24.721Z,934.76
2022-12-23T01:57:24.710Z,934.74
2022-12-23T01:58:24.762Z,934.75
2022-12-23T01:59:24.748Z,934.76
2022-12-23T02:00:24.767Z,934.75
2022-12-23T02:01:24.803Z,934.82
2022-12-23T02:02:24.931Z,934.78
2022-12-23T02:03:24.906Z,934.82
2022-12-23T02:04:24.824Z,934.80
2022-12-23T02:05:24.833Z,934.81
2022-12-23T02:06:24.840Z,934.83
2022-12-23T02:07:24.861Z,934.76
2022-12-23T02:08:24.876Z,934.75
2022-12-23T02:09:24.884Z,934.78
2022-12-23T02:10:25.012Z,934.75
2022-12-23T02:11:24.919Z,934.78
2022-12-23T02:12:24.958Z,934.80
2022-12-23T02:13:24.945Z,934.76
2022-12-23T02:14:24.950Z,934.76
2022-12-23T02:15:24.980Z,934.76
2022-12-23T02:16:25.066Z,934.73
2022-12-23T02:17:25.009Z,934.71
2022-12-23T02:18:25.018Z,934.74
2022-12-23T02:19:25.033Z,934.76
2022-12-23T02:20:25.044Z,934.74
2022-12-23T02:21:25.061Z,934.73
2022-12-23T02:22:25.073Z,934.69
2022-12-23T02:23:25.087Z,934.68
2022-12-23T02:24:25.091Z,934.67
2022-12-23T02:25:25.119Z,934.69
2022-12-23T02:26:25.129Z,934.66
2022-12-23T02:27:25.135Z,934.68
2022-12-23T02:28:25.188Z,934.66
2022-12-23T02:29:25.162Z,934.69
2022-12-23T02:30:25.196Z,934.72
2022-12-23T02:31:25.260Z,934.71
2022-12-23T02:32:25.226Z,934.71
2022-12-23T02:33:25.231Z,934.69
2022-12-23T02:34:25.239Z,934.69
2022-12-23T02:35:25.248Z,934.73
2022-12-23T02:36:25.263Z,934.72
2022-12-23T02:37:25.275Z,934.70
2022-12-23T02:38:25.315Z,934.73
2022-12-23T02:39:25.306Z,934.70
2022-12-23T02:40:25.326Z,934.69
2022-12-23T02:41:25.331Z,934.67
2022-12-23T02:42:25.347Z,934.66
2022-12-23T02:43:25.370Z,934.67
2022-12-23T02:44:25.400Z,934.64
2022-12-23T02:45:25.395Z,934.61
2022-12-23T02:46:25.477Z,934.62
2022-12-23T02:47:25.426Z,934.60
2022-12-23T02:48:25.440Z,934.54
2022-12-23T02:49:25.459Z,934.53
2022-12-23T02:50:25.468Z,934.55
2022-12-23T02:51:25.486Z,934.51
2022-12-23T02:52:25.495Z,934.49
2022-12-23T02:53:25.500Z,934.42
2022-12-23T02:54:25.522Z,934.47
2022-12-23T02:55:25.529Z,934.48
2022-12-23T02:56:25.548Z,934.46
2022-12-23T02:57:25.556Z,934.43
2022-12-23T02:58:25.580Z,934.46
2022-12-23T02:59:25.596Z,934.45
2022-12-23T03:00:25.617Z,934.43
2022-12-23T03:01:25.878Z,934.42
2022-12-23T03:02:25.777Z,934.39
2022-12-23T03:03:25.715Z,934.44
2022-12-23T03:04:25.676Z,934.41
2022-12-23T03:05:25.672Z,934.38
2022-12-23T03:06:25.723Z,934.40
2022-12-23T03:07:25.709Z,934.39
2022-12-23T03:08:25.709Z,934.42
2022-12-23T03:09:25.733Z,934.42
2022-12-23T03:10:25.739Z,934.42
2022-12-23T03:11:25.763Z,934.38
2022-12-23T03:12:25.785Z,934.35
2022-12-23T03:13:25.786Z,934.34
2022-12-23T03:14:25.803Z,934.34
2022-12-23T03:15:25.880Z,934.27
2022-12-23T03:16:25.941Z,934.31
2022-12-23T03:17:25.859Z,934.30
2022-12-23T03:18:25.852Z,934.33
2022-12-23T03:19:25.872Z,934.28
2022-12-23T03:20:25.879Z,934.25
2022-12-23T03:21:25.901Z,934.26
2022-12-23T03:22:25.922Z,934.24
2022-12-23T03:23:25.923Z,934.20
2022-12-23T03:24:25.942Z,934.23
2022-12-23T03:25:25.956Z,934.20
2022-12-23T03:26:25.962Z,934.18
2022-12-23T03:27:25.987Z,934.21
2022-12-23T03:28:25.990Z,934.18
2022-12-23T03:29:26.012Z,934.15
2022-12-23T03:30:26.027Z,934.17
2022-12-23T03:31:26.121Z,934.14
2022-12-23T03:32:26.072Z,934.16
2022-12-23T03:33:26.072Z,934.18
2022-12-23T03:34:26.085Z,934.16
2022-12-23T03:35:26.095Z,934.13
2022-12-23T03:36:26.105Z,934.14
2022-12-23T03:37:26.124Z,934.13
2022-12-23T03:38:26.136Z,934.10
2022-12-23T03:39:26.155Z,934.14
2022-12-23T03:40:26.160Z,934.15
2022-12-23T03:41:26.183Z,934.14
2022-12-23T03:42:26.188Z,934.14
2022-12-23T03:43:26.209Z,934.14
2022-12-23T03:44:26.224Z,934.10
2022-12-23T03:45:38.488Z,934.12
2022-12-23T03:46:26.293Z,934.07
2022-12-23T03:47:26.276Z,934.04
2022-12-23T03:48:26.302Z,934.03
2022-12-23T03:49:26.295Z,934.04
2022-12-23T03:50:26.307Z,933.99
2022-12-23T03:51:26.328Z,933.99
2022-12-23T03:52:26.326Z,933.96
2022-12-23T03:53:26.345Z,934.01
2022-12-23T03:54:26.356Z,934.01
2022-12-23T03:55:26.379Z,934.02
2022-12-23T03:56:26.394Z,934.02
2022-12-23T03:57:26.397Z,934.02
2022-12-23T03:58:26.421Z,934.00
2022-12-23T03:59:26.427Z,933.99
2022-12-23T04:00:26.438Z,933.98
2022-12-23T04:01:26.626Z,933.96
2022-12-23T04:02:26.569Z,933.92
2022-12-23T04:03:26.539Z,933.93
2022-12-23T04:04:26.531Z,933.87
2022-12-23T04:05:26.526Z,933.84
2022-12-23T04:06:26.531Z,933.84
2022-12-23T04:07:26.540Z,933.83
2022-12-23T04:08:26.570Z,933.78
2022-12-23T04:09:26.565Z,933.81
2022-12-23T04:10:26.588Z,933.78
2022-12-23T04:11:26.597Z,933.76
2022-12-23T04:12:26.632Z,933.76
2022-12-23T04:13:26.648Z,933.74
2022-12-23T04:14:26.645Z,933.71
2022-12-23T04:15:26.652Z,933.71
2022-12-23T04:16:26.761Z,933.67
2022-12-23T04:17:26.691Z,933.69
2022-12-23T04:18:26.709Z,933.66
2022-12-23T04:19:26.714Z,933.66
2022-12-23T04:20:26.742Z,933.64
2022-12-23T04:21:26.733Z,933.64
2022-12-23T04:22:26.746Z,933.63
2022-12-23T04:23:26.768Z,933.61
2022-12-23T04:24:26.789Z,933.59
2022-12-23T04:25:26.798Z,933.62
2022-12-23T04:26:26.809Z,933.59
2022-12-23T04:27:26.824Z,933.59
2022-12-23T04:28:26.867Z,933.58
2022-12-23T04:29:26.866Z,933.54
2022-12-23T04:30:33.546Z,933.53
2022-12-23T04:31:26.926Z,933.51
2022-12-23T04:32:26.895Z,933.51
2022-12-23T04:33:26.906Z,933.46
2022-12-23T04:34:26.919Z,933.46
2022-12-23T04:35:26.939Z,933.46
2022-12-23T04:36:26.967Z,933.44
2022-12-23T04:37:26.968Z,933.41
2022-12-23T04:38:26.971Z,933.38
2022-12-23T04:39:26.984Z,933.42
2022-12-23T04:40:27.020Z,933.34
2022-12-23T04:41:27.010Z,933.32
2022-12-23T04:42:27.033Z,933.29
2022-12-23T04:43:27.461Z,933.28
2022-12-23T04:44:27.056Z,933.26
2022-12-23T04:45:27.078Z,933.23
2022-12-23T04:46:27.103Z,933.27
2022-12-23T04:47:27.103Z,933.24
2022-12-23T04:48:27.109Z,933.24
2022-12-23T04:49:27.133Z,933.19
2022-12-23T04:50:27.146Z,933.18
2022-12-23T04:51:27.163Z,933.22
2022-12-23T04:52:27.194Z,933.15
2022-12-23T04:53:27.195Z,933.19
2022-12-23T04:54:27.200Z,933.16
2022-12-23T04:55:27.207Z,933.16
2022-12-23T04:56:27.224Z,933.16
2022-12-23T04:57:27.252Z,933.16
2022-12-23T04:58:27.262Z,933.19
2022-12-23T04:59:27.263Z,933.16
2022-12-23T05:00:27.279Z,933.11
2022-12-23T05:01:27.454Z,933.11
2022-12-23T05:02:27.377Z,933.06
2022-12-23T05:03:27.423Z,933.04
2022-12-23T05:04:27.464Z,933.05
2022-12-23T05:05:27.344Z,933.04
2022-12-23T05:06:27.368Z,933.05
2022-12-23T05:07:27.374Z,933.02
2022-12-23T05:08:27.418Z,933.01
2022-12-23T05:09:27.415Z,933.00
2022-12-23T05:10:27.418Z,932.96
2022-12-23T05:11:27.428Z,933.00
2022-12-23T05:12:27.449Z,932.96
2022-12-23T05:13:27.457Z,932.96
2022-12-23T05:14:27.472Z,932.94
2022-12-23T05:15:27.497Z,932.93
2022-12-23T05:16:27.539Z,932.91
2022-12-23T05:17:27.520Z,932.96
2022-12-23T05:18:27.542Z,932.95
2022-12-23T05:19:27.544Z,932.92
2022-12-23T05:20:27.570Z,932.91
2022-12-23T05:21:27.576Z,932.89
2022-12-23T05:22:27.593Z,932.88
2022-12-23T05:23:27.607Z,932.87
2022-12-23T05:24:27.636Z,932.84
2022-12-23T05:25:27.629Z,932.80
2022-12-23T05:26:27.645Z,932.84
2022-12-23T05:27:27.658Z,932.88
2022-12-23T05:28:27.671Z,932.85
2022-12-23T05:29:27.689Z,932.84
2022-12-23T05:30:27.705Z,932.86
2022-12-23T05:31:27.833Z,932.82
2022-12-23T05:32:27.716Z,932.85
2022-12-23T05:33:27.783Z,932.85
2022-12-23T05:34:27.748Z,932.86
2022-12-23T05:35:27.767Z,932.82
2022-12-23T05:36:28.179Z,932.82
2022-12-23T05:37:27.804Z,932.82
2022-12-23T05:38:27.839Z,932.81
2022-12-23T05:39:27.821Z,932.82
2022-12-23T05:40:29.640Z,932.80
2022-12-23T05:41:27.858Z,932.82
2022-12-23T05:42:27.879Z,932.81
2022-12-23T05:43:27.889Z,932.78
2022-12-23T05:44:27.884Z,932.81
2022-12-23T05:45:27.973Z,932.80
2022-12-23T05:46:27.954Z,932.77
2022-12-23T05:47:27.935Z,932.76
2022-12-23T05:48:27.942Z,932.73
2022-12-23T05:49:27.956Z,932.73
2022-12-23T05:50:27.976Z,932.74
2022-12-23T05:51:27.991Z,932.71
2022-12-23T05:52:28.005Z,932.74
2022-12-23T05:53:28.030Z,932.73
2022-12-23T05:54:28.027Z,932.73
2022-12-23T05:55:28.039Z,932.78
2022-12-23T05:56:28.086Z,932.69
2022-12-23T05:57:28.082Z,932.71
2022-12-23T05:58:28.113Z,932.73
2022-12-23T05:59:31.196Z,932.70
2022-12-23T06:00:28.131Z,932.65
2022-12-23T06:01:28.180Z,932.66
2022-12-23T06:02:28.271Z,932.64
2022-12-23T06:03:28.503Z,932.62
2022-12-23T06:04:28.274Z,932.61
2022-12-23T06:05:28.184Z,932.61
2022-12-23T06:06:28.200Z,932.59
2022-12-23T06:07:28.204Z,932.60
2022-12-23T06:08:28.221Z,932.64
2022-12-23T06:09:28.244Z,932.64
2022-12-23T06:10:28.262Z,932.68
2022-12-23T06:11:28.273Z,932.64
2022-12-23T06:12:28.297Z,932.66
2022-12-23T06:13:28.306Z,932.66
2022-12-23T06:14:29.342Z,932.67
2022-12-23T06:15:28.329Z,932.66
2022-12-23T06:16:28.380Z,932.63
2022-12-23T06:17:28.342Z,932.61
2022-12-23T06:18:28.357Z,932.65
2022-12-23T06:19:28.377Z,932.66
2022-12-23T06:20:28.398Z,932.62
2022-12-23T06:21:28.434Z,932.60
2022-12-23T06:22:28.422Z,932.58
2022-12-23T06:23:28.425Z,932.56
2022-12-23T06:24:28.438Z,932.57
2022-12-23T06:25:28.456Z,932.59
2022-12-23T06:26:28.493Z,932.66
2022-12-23T06:27:28.501Z,932.61
2022-12-23T06:28:28.531Z,932.65
2022-12-23T06:29:28.510Z,932.63
2022-12-23T06:30:28.537Z,932.62
2022-12-23T06:31:28.600Z,932.59
2022-12-23T06:32:31.590Z,932.58
2022-12-23T06:33:28.570Z,932.57
2022-12-23T06:34:28.580Z,932.59
2022-12-23T06:35:28.596Z,932.57
2022-12-23T06:36:28.605Z,932.60
2022-12-23T06:37:28.622Z,932.59
2022-12-23T06:38:28.632Z,932.59
2022-12-23T06:39:28.684Z,932.61
2022-12-23T06:40:28.667Z,932.64
2022-12-23T06:41:28.673Z,932.63
2022-12-23T06:42:28.686Z,932.62
2022-12-23T06:43:28.708Z,932.61
2022-12-23T06:44:28.754Z,932.64
2022-12-23T06:45:28.734Z,932.64
2022-12-23T06:46:28.829Z,932.65
2022-12-23T06:47:28.778Z,932.68
2022-12-23T06:48:28.779Z,932.68
2022-12-23T06:49:28.791Z,932.69
2022-12-23T06:50:28.804Z,932.70
2022-12-23T06:51:28.819Z,932.72
2022-12-23T06:52:28.825Z,932.71
2022-12-23T06:53:28.848Z,932.67
2022-12-23T06:54:28.859Z,932.69
2022-12-23T06:55:28.872Z,932.69
2022-12-23T06:56:28.885Z,932.68
2022-12-23T06:57:28.893Z,932.68
2022-12-23T06:58:28.915Z,932.69
2022-12-23T06:59:28.925Z,932.67
2022-12-23T07:00:28.961Z,932.71
2022-12-23T07:01:29.026Z,932.70
2022-12-23T07:02:29.050Z,932.68
2022-12-23T07:03:29.102Z,932.68
2022-12-23T07:04:29.089Z,932.66
2022-12-23T07:05:36.483Z,932.65
2022-12-23T07:06:29.024Z,932.68
2022-12-23T07:07:29.030Z,932.68
2022-12-23T07:08:29.045Z,932.75
2022-12-23T07:09:29.141Z,932.77
2022-12-23T07:10:29.236Z,932.79
2022-12-23T07:11:29.218Z,932.78
2022-12-23T07:12:29.104Z,932.79
2022-12-23T07:13:29.118Z,932.78
2022-12-23T07:14:29.135Z,932.75
2022-12-23T07:15:29.149Z,932.76
2022-12-23T07:16:29.260Z,932.78
2022-12-23T07:17:29.181Z,932.76
2022-12-23T07:18:29.181Z,932.77
2022-12-23T07:19:29.203Z,932.78
2022-12-23T07:20:29.208Z,932.81
2022-12-23T07:21:30.125Z,932.79
2022-12-23T07:22:29.234Z,932.79
2022-12-23T07:23:29.255Z,932.81
2022-12-23T07:24:29.263Z,932.81
2022-12-23T07:25:29.285Z,932.85
2022-12-23T07:26:29.296Z,932.84
2022-12-23T07:27:29.304Z,932.77
2022-12-23T07:28:29.323Z,932.79
2022-12-23T07:29:29.331Z,932.82
2022-12-23T07:30:29.357Z,932.79
2022-12-23T07:31:29.426Z,932.83
2022-12-23T07:32:29.418Z,932.85
2022-12-23T07:33:29.385Z,932.81
2022-12-23T07:34:29.408Z,932.86
2022-12-23T07:35:29.443Z,932.91
2022-12-23T07:36:29.431Z,932.91
2022-12-23T07:37:29.449Z,932.90
2022-12-23T07:38:29.464Z,932.92
2022-12-23T07:39:29.470Z,932.96
2022-12-23T07:40:29.491Z,932.92
2022-12-23T07:41:29.504Z,932.94
2022-12-23T07:42:46.839Z,932.93
2022-12-23T07:43:29.526Z,932.91
2022-12-23T07:44:29.698Z,932.90
2022-12-23T07:45:29.743Z,932.93
2022-12-23T07:46:29.696Z,932.95
2022-12-23T07:47:29.580Z,932.95
2022-12-23T07:48:29.623Z,932.96
2022-12-23T07:49:29.605Z,932.97
2022-12-23T07:50:29.619Z,933.00
2022-12-23T07:51:29.637Z,932.99
2022-12-23T07:52:29.647Z,933.01
2022-12-23T07:53:29.675Z,933.02
2022-12-23T07:54:29.688Z,933.04
2022-12-23T07:55:29.708Z,933.03
2022-12-23T07:56:29.702Z,933.00
2022-12-23T07:57:29.725Z,933.03
2022-12-23T07:58:29.730Z,933.03
2022-12-23T07:59:29.741Z,932.97
2022-12-23T08:00:29.757Z,933.00
2022-12-23T08:01:29.981Z,932.99
2022-12-23T08:02:30.061Z,933.00
2022-12-23T08:03:29.922Z,932.97
2022-12-23T08:04:29.862Z,932.96
2022-12-23T08:05:29.920Z,932.95
2022-12-23T08:06:29.856Z,933.00
2022-12-23T08:07:29.880Z,933.01
2022-12-23T08:08:29.887Z,933.08
2022-12-23T08:09:29.885Z,933.05
2022-12-23T08:10:29.903Z,933.12
2022-12-23T08:11:29.908Z,933.13
2022-12-23T08:12:29.930Z,933.14
2022-12-23T08:13:29.935Z,933.14
2022-12-23T08:14:29.950Z,933.18
2022-12-23T08:15:29.961Z,933.15
2022-12-23T08:16:30.045Z,933.15
2022-12-23T08:17:30.012Z,933.12
2022-12-23T08:18:30.013Z,933.15
2022-12-23T08:19:30.028Z,933.15
2022-12-23T08:20:30.168Z,933.19
2022-12-23T08:21:30.042Z,933.19
2022-12-23T08:22:30.064Z,933.23
2022-12-23T08:23:30.076Z,933.24
2022-12-23T08:24:30.093Z,933.27
2022-12-23T08:25:30.105Z,933.29
2022-12-23T08:26:30.124Z,933.29
2022-12-23T08:27:30.152Z,933.30
2022-12-23T08:28:30.142Z,933.32
2022-12-23T08:29:36.047Z,933.34
2022-12-23T08:30:30.256Z,933.33
2022-12-23T08:31:30.286Z,933.35
2022-12-23T08:32:30.200Z,933.37
2022-12-23T08:33:30.223Z,933.38
2022-12-23T08:34:30.227Z,933.38
2022-12-23T08:35:30.248Z,933.38
2022-12-23T08:36:30.290Z,933.36
2022-12-23T08:37:30.261Z,933.41
2022-12-23T08:38:30.273Z,933.40
2022-12-23T08:39:30.298Z,933.43
2022-12-23T08:40:30.316Z,933.38
2022-12-23T08:41:30.322Z,933.43
2022-12-23T08:42:30.331Z,933.39
2022-12-23T08:43:35.813Z,933.43
2022-12-23T08:44:30.363Z,933.37
2022-12-23T08:45:30.377Z,933.40
2022-12-23T08:46:30.443Z,933.40
2022-12-23T08:47:30.418Z,933.40
2022-12-23T08:48:30.418Z,933.44
2022-12-23T08:49:30.436Z,933.45
2022-12-23T08:50:30.438Z,933.44
2022-12-23T08:51:30.461Z,933.48
2022-12-23T08:52:30.484Z,933.46
2022-12-23T08:53:30.482Z,933.48
2022-12-23T08:54:30.513Z,933.47
2022-12-23T08:55:30.522Z,933.49
2022-12-23T08:56:30.523Z,933.44
2022-12-23T08:57:30.540Z,933.42
2022-12-23T08:58:30.552Z,933.44
2022-12-23T08:59:30.560Z,933.44
2022-12-23T09:00:30.580Z,933.47
2022-12-23T09:01:30.713Z,933.50
2022-12-23T09:02:30.762Z,933.53
2022-12-23T09:03:30.704Z,933.53
2022-12-23T09:04:30.627Z,933.53
2022-12-23T09:05:30.646Z,933.49
2022-12-23T09:06:30.698Z,933.55
2022-12-23T09:07:30.677Z,933.60
2022-12-23T09:08:30.702Z,933.58
2022-12-23T09:09:30.708Z,933.59
2022-12-23T09:10:30.718Z,933.57
2022-12-23T09:11:30.735Z,933.57
2022-12-23T09:12:30.762Z,933.54
2022-12-23T09:13:35.292Z,933.57
2022-12-23T09:14:30.801Z,933.56
2022-12-23T09:15:30.850Z,933.54
2022-12-23T09:16:30.934Z,933.56
2022-12-23T09:17:30.813Z,933.56
2022-12-23T09:18:30.834Z,933.57
2022-12-23T09:19:30.847Z,933.59
2022-12-23T09:20:30.853Z,933.61
2022-12-23T09:21:30.874Z,933.61
2022-12-23T09:22:30.882Z,933.60
2022-12-23T09:23:30.890Z,933.65
2022-12-23T09:24:30.923Z,933.63
2022-12-23T09:25:30.913Z,933.67
2022-12-23T09:26:30.930Z,933.76
2022-12-23T09:27:30.950Z,933.78
2022-12-23T09:28:30.963Z,933.79
2022-12-23T09:29:30.975Z,933.80
2022-12-23T09:30:30.981Z,933.86
2022-12-23T09:31:36.627Z,933.83
2022-12-23T09:32:31.015Z,933.87
2022-12-23T09:33:31.021Z,933.88
2022-12-23T09:34:31.056Z,933.87
2022-12-23T09:35:31.062Z,933.86
2022-12-23T09:36:31.071Z,933.85
2022-12-23T09:37:31.077Z,933.89
2022-12-23T09:38:31.089Z,933.91
2022-12-23T09:39:31.114Z,933.92
2022-12-23T09:40:31.143Z,933.93
2022-12-23T09:41:31.131Z,933.96
2022-12-23T09:42:31.152Z,933.95
2022-12-23T09:43:31.165Z,933.95
2022-12-23T09:44:31.181Z,933.99
2022-12-23T09:45:35.632Z,933.97
2022-12-23T09:46:31.276Z,933.96
2022-12-23T09:47:31.213Z,933.97
2022-12-23T09:48:31.224Z,933.99
2022-12-23T09:49:31.244Z,934.04
2022-12-23T09:50:31.269Z,934.02
2022-12-23T09:51:31.296Z,934.01
2022-12-23T09:52:31.278Z,934.06
2022-12-23T09:53:31.304Z,934.03
2022-12-23T09:54:31.353Z,934.04
2022-12-23T09:55:31.327Z,934.03
2022-12-23T09:56:31.358Z,934.08
2022-12-23T09:57:31.377Z,934.07
2022-12-23T09:58:31.367Z,934.09
2022-12-23T09:59:31.426Z,934.13
2022-12-23T10:00:31.389Z,934.12
2022-12-23T10:01:31.651Z,934.14
2022-12-23T10:02:31.668Z,934.14
2022-12-23T10:03:31.686Z,934.13
2022-12-23T10:04:31.574Z,934.17
2022-12-23T10:05:31.462Z,934.18
2022-12-23T10:06:31.475Z,934.20
2022-12-23T10:07:31.482Z,934.23
2022-12-23T10:08:31.502Z,934.22
2022-12-23T10:09:31.519Z,934.22
2022-12-23T10:10:31.527Z,934.21
2022-12-23T10:11:31.554Z,934.24
2022-12-23T10:12:37.401Z,934.26
2022-12-23T10:13:31.614Z,934.27
2022-12-23T10:14:31.587Z,934.23
2022-12-23T10:15:31.599Z,934.25
2022-12-23T10:16:31.674Z,934.25
2022-12-23T10:17:31.627Z,934.25
2022-12-23T10:18:31.638Z,934.25
2022-12-23T10:19:31.662Z,934.27
2022-12-23T10:20:31.665Z,934.24
2022-12-23T10:21:31.682Z,934.28
2022-12-23T10:22:31.691Z,934.23
2022-12-23T10:23:31.752Z,934.26
2022-12-23T10:24:31.719Z,934.26
2022-12-23T10:25:31.732Z,934.25
2022-12-23T10:26:31.747Z,934.27
2022-12-23T10:27:31.768Z,934.32
2022-12-23T10:28:31.783Z,934.31
2022-12-23T10:29:31.778Z,934.31
2022-12-23T10:30:57.265Z,934.36
2022-12-23T10:31:40.298Z,934.34
2022-12-23T10:32:31.901Z,934.35
2022-12-23T10:33:31.895Z,934.38
2022-12-23T10:34:38.151Z,934.35
2022-12-23T10:35:31.860Z,934.40
2022-12-23T10:36:31.975Z,934.38
2022-12-23T10:37:31.894Z,934.40
2022-12-23T10:38:31.900Z,934.43
2022-12-23T10:39:31.913Z,934.41
2022-12-23T10:40:31.933Z,934.35
2022-12-23T10:41:31.948Z,934.41
2022-12-23T10:42:31.962Z,934.43
2022-12-23T10:43:31.968Z,934.42
2022-12-23T10:44:32.016Z,934.43
2022-12-23T10:45:32.009Z,934.50
2022-12-23T10:46:32.066Z,934.48
2022-12-23T10:47:32.028Z,934.48
2022-12-23T10:48:32.952Z,934.49
2022-12-23T10:49:32.063Z,934.54
2022-12-23T10:50:32.062Z,934.46
2022-12-23T10:51:32.076Z,934.45
2022-12-23T10:52:32.104Z,934.46
2022-12-23T10:53:32.102Z,934.46
2022-12-23T10:54:32.137Z,934.46
2022-12-23T10:55:34.065Z,934.53
2022-12-23T10:56:32.152Z,934.46
2022-12-23T10:57:32.157Z,934.48
2022-12-23T10:58:32.183Z,934.47
2022-12-23T10:59:32.211Z,934.48
2022-12-23T11:00:32.248Z,934.51
2022-12-23T11:01:32.350Z,934.53
2022-12-23T11:02:32.451Z,934.53
2022-12-23T11:03:32.653Z,934.55
2022-12-23T11:04:32.257Z,934.55
2022-12-23T11:05:32.271Z,934.53
2022-12-23T11:06:37.270Z,934.55
2022-12-23T11:07:47.598Z,934.61
2022-12-23T11:08:32.310Z,934.64
2022-12-23T11:09:32.334Z,934.66
2022-12-23T11:10:32.331Z,934.69
2022-12-23T11:11:32.353Z,934.65
2022-12-23T11:12:35.996Z,934.67
2022-12-23T11:13:32.379Z,934.69
2022-12-23T11:14:32.395Z,934.70
2022-12-23T11:15:32.407Z,934.71
2022-12-23T11:16:32.515Z,934.76
2022-12-23T11:17:32.437Z,934.76
2022-12-23T11:18:35.165Z,934.78
2022-12-23T11:19:32.459Z,934.78
2022-12-23T11:20:32.481Z,934.74
2022-12-23T11:21:32.480Z,934.73
2022-12-23T11:22:32.501Z,934.72
2022-12-23T11:23:32.515Z,934.71
2022-12-23T11:24:35.402Z,934.70
2022-12-23T11:25:32.537Z,934.68
2022-12-23T11:26:32.555Z,934.72
2022-12-23T11:27:32.561Z,934.75
2022-12-23T11:28:32.597Z,934.74
2022-12-23T11:29:32.586Z,934.74
2022-12-23T11:30:32.611Z,934.75
2022-12-23T11:31:32.676Z,934.77
2022-12-23T11:32:32.657Z,934.73
2022-12-23T11:33:32.642Z,934.76
2022-12-23T11:34:32.662Z,934.76
2022-12-23T11:35:32.738Z,934.75
2022-12-23T11:36:32.682Z,934.75
2022-12-23T11:37:32.698Z,934.73
2022-12-23T11:38:32.732Z,934.73
2022-12-23T11:39:32.731Z,934.79
2022-12-23T11:40:32.735Z,934.83
2022-12-23T11:41:32.749Z,934.76
2022-12-23T11:42:32.762Z,934.81
2022-12-23T11:43:32.792Z,934.84
2022-12-23T11:44:32.795Z,934.86
2022-12-23T11:45:32.860Z,934.84
2022-12-23T11:46:32.890Z,934.84
2022-12-23T11:47:32.836Z,934.83
2022-12-23T11:48:32.881Z,934.86
2022-12-23T11:49:32.857Z,934.91
2022-12-23T11:50:32.880Z,934.87
2022-12-23T11:51:32.887Z,934.86
2022-12-23T11:52:32.913Z,934.85
2022-12-23T11:53:32.917Z,934.86
2022-12-23T11:54:32.925Z,934.84
2022-12-23T11:55:32.988Z,934.82
2022-12-23T11:56:32.985Z,934.81
2022-12-23T11:57:32.986Z,934.81
2022-12-23T11:58:32.983Z,934.79
2022-12-23T11:59:32.989Z,934.79
2022-12-23T12:00:33.012Z,934.79
2022-12-23T12:01:33.018Z,934.82
2022-12-23T12:02:33.079Z,934.78
2022-12-23T12:03:33.180Z,934.82
2022-12-23T12:04:33.075Z,934.81
2022-12-23T12:05:33.077Z,934.74
2022-12-23T12:06:33.098Z,934.79
2022-12-23T12:07:33.102Z,934.80
2022-12-23T12:08:33.119Z,934.75
2022-12-23T12:09:33.133Z,934.77
2022-12-23T12:10:33.139Z,934.77
2022-12-23T12:11:33.155Z,934.76
2022-12-23T12:12:33.180Z,934.77
2022-12-23T12:13:33.181Z,934.78
2022-12-23T12:14:33.195Z,934.71
2022-12-23T12:15:33.225Z,934.75
2022-12-23T12:16:33.314Z,934.73
2022-12-23T12:17:33.234Z,934.70
2022-12-23T12:18:33.261Z,934.73
2022-12-23T12:19:33.265Z,934.73
2022-12-23T12:20:33.321Z,934.73
2022-12-23T12:21:33.299Z,934.74
2022-12-23T12:22:33.301Z,934.69
2022-12-23T12:23:33.315Z,934.70
2022-12-23T12:24:33.333Z,934.77
2022-12-23T12:25:37.944Z,934.76
2022-12-23T12:26:33.356Z,934.73
2022-12-23T12:27:33.380Z,934.68
2022-12-23T12:28:33.397Z,934.66